createdAt,value
2022-12-12T00:01:29.957Z,10.00
2022-12-12T00:04:00.184Z,10.63
2022-12-12T00:06:29.653Z,10.83
2022-12-12T00:08:58.176Z,11.77
2022-12-12T00:11:28.347Z,11.93
2022-12-12T00:13:56.858Z,11.97
2022-12-12T00:16:26.262Z,10.57
2022-12-12T00:18:54.866Z,12.83
2022-12-12T00:21:28.460Z,11.17
2022-12-12T00:23:57.737Z,9.60
2022-12-12T00:26:29.600Z,13.73
2022-12-12T00:28:59.273Z,10.87
2022-12-12T00:31:27.937Z,11.57
2022-12-12T00:33:56.905Z,12.53
2022-12-12T00:36:30.101Z,12.47
2022-12-12T00:38:59.734Z,11.57
2022-12-12T00:41:28.491Z,12.17
2022-12-12T00:43:56.816Z,10.23
2022-12-12T00:46:27.004Z,10.43
2022-12-12T00:48:57.460Z,10.23
2022-12-12T00:51:29.297Z,10.60
2022-12-12T00:53:58.343Z,10.13
2022-12-12T00:56:29.191Z,10.23
2022-12-12T00:58:57.580Z,10.73
2022-12-12T01:01:29.980Z,9.57
2022-12-12T01:03:58.901Z,11.77
2022-12-12T01:06:29.535Z,12.57
2022-12-12T01:08:58.124Z,12.50
2022-12-12T01:11:27.209Z,12.67
2022-12-12T01:13:56.617Z,13.53
2022-12-12T01:16:25.979Z,12.47
2022-12-12T01:18:54.576Z,14.63
2022-12-12T01:21:24.311Z,11.90
2022-12-12T01:23:54.013Z,13.47
2022-12-12T01:26:25.499Z,11.60
2022-12-12T01:28:54.631Z,13.43
2022-12-12T01:31:23.287Z,11.37
2022-12-12T01:33:51.723Z,13.10
2022-12-12T01:36:23.489Z,23.73
2022-12-12T01:38:57.073Z,17.13
2022-12-12T01:41:26.172Z,14.07
2022-12-12T01:43:55.064Z,14.93
2022-12-12T01:46:41.071Z,12.03
2022-12-12T01:49:22.937Z,12.63
2022-12-12T01:51:54.132Z,12.97
2022-12-12T01:54:30.454Z,16.40
2022-12-12T01:57:02.806Z,17.37
2022-12-12T01:59:31.289Z,16.10
2022-12-12T02:01:59.690Z,17.73
2022-12-12T02:04:29.386Z,16.43
2022-12-12T02:06:58.458Z,16.27
2022-12-12T02:09:28.753Z,17.47
2022-12-12T02:11:58.822Z,14.80
2022-12-12T02:14:32.115Z,15.73
2022-12-12T02:17:29.424Z,14.50
2022-12-12T02:20:50.095Z,13.63
2022-12-12T02:24:31.300Z,16.63
2022-12-12T02:27:36.880Z,15.93
2022-12-12T02:30:17.596Z,17.60
2022-12-12T02:33:17.028Z,17.43
2022-12-12T02:35:58.155Z,17.87
2022-12-12T02:38:32.378Z,16.37
2022-12-12T02:41:15.391Z,17.23
2022-12-12T02:43:52.992Z,16.77
2022-12-12T02:46:28.313Z,20.50
2022-12-12T02:49:03.139Z,15.67
2022-12-12T02:51:33.320Z,16.77
2022-12-12T02:54:02.154Z,19.57
2022-12-12T02:56:58.789Z,17.60
2022-12-12T02:59:31.196Z,20.03
2022-12-12T03:02:48.198Z,17.97
2022-12-12T03:05:55.288Z,17.60
2022-12-12T03:08:41.170Z,17.13
2022-12-12T03:11:12.620Z,16.00
2022-12-12T03:13:51.157Z,17.93
2022-12-12T03:16:29.302Z,14.80
2022-12-12T03:19:05.645Z,14.27
2022-12-12T03:21:41.206Z,14.13
2022-12-12T03:24:16.155Z,12.87
2022-12-12T03:26:50.938Z,14.37
2022-12-12T03:29:23.953Z,12.27
2022-12-12T03:31:58.478Z,15.37
2022-12-12T03:34:32.073Z,14.43
2022-12-12T03:37:09.056Z,15.13
2022-12-12T03:39:45.057Z,13.57
2022-12-12T03:42:22.112Z,13.97
2022-12-12T03:44:56.842Z,14.43
2022-12-12T03:47:31.931Z,15.43
2022-12-12T03:50:06.163Z,13.63
2022-12-12T03:52:42.254Z,15.97
2022-12-12T03:55:17.943Z,18.80
2022-12-12T03:57:53.474Z,15.73
2022-12-12T04:00:22.061Z,17.27
2022-12-12T04:02:57.501Z,14.27
2022-12-12T04:05:33.813Z,13.97
2022-12-12T04:08:08.622Z,16.03
2022-12-12T04:11:02.994Z,14.67
2022-12-12T04:13:39.325Z,17.10
2022-12-12T04:16:11.641Z,17.10
2022-12-12T04:18:47.916Z,15.67
2022-12-12T04:21:44.845Z,17.73
2022-12-12T04:24:24.828Z,15.47
2022-12-12T04:27:00.367Z,16.10
2022-12-12T04:29:40.200Z,16.13
2022-12-12T04:32:16.316Z,20.27
2022-12-12T04:34:52.488Z,18.13
2022-12-12T04:37:25.335Z,16.43
2022-12-12T04:40:01.740Z,18.93
2022-12-12T04:42:35.752Z,17.00
2022-12-12T04:45:10.277Z,16.60
2022-12-12T04:47:40.969Z,18.50
2022-12-12T04:50:10.752Z,16.53
2022-12-12T04:52:41.201Z,17.87
2022-12-12T04:55:16.377Z,19.13
2022-12-12T04:57:48.732Z,17.37
2022-12-12T05:00:19.809Z,20.20
2022-12-12T05:02:56.423Z,17.73
2022-12-12T05:05:29.646Z,18.10
2022-12-12T05:08:04.293Z,19.80
2022-12-12T05:10:34.650Z,17.67
2022-12-12T05:13:02.920Z,21.40
2022-12-12T05:15:31.370Z,17.47
2022-12-12T05:18:04.772Z,20.83
2022-12-12T05:20:33.025Z,21.60
2022-12-12T05:23:01.424Z,20.83
2022-12-12T05:25:29.716Z,20.37
2022-12-12T05:27:59.587Z,20.57
2022-12-12T05:30:28.422Z,20.73
2022-12-12T05:32:56.760Z,18.90
2022-12-12T05:35:25.889Z,19.23
2022-12-12T05:37:54.190Z,23.50
2022-12-12T05:40:23.086Z,19.30
2022-12-12T05:42:51.511Z,21.13
2022-12-12T05:45:21.400Z,22.13
2022-12-12T05:47:49.838Z,20.57
2022-12-12T05:50:18.291Z,19.03
2022-12-12T05:52:46.634Z,20.87
2022-12-12T05:55:15.910Z,21.50
2022-12-12T05:57:44.336Z,19.23
2022-12-12T06:00:13.785Z,21.37
2022-12-12T06:02:43.496Z,18.93
2022-12-12T06:05:12.185Z,19.63
2022-12-12T06:07:40.887Z,19.70
2022-12-12T06:10:10.305Z,27.47
2022-12-12T06:12:38.641Z,20.20
2022-12-12T06:15:08.545Z,20.97
2022-12-12T06:17:36.956Z,21.70
2022-12-12T06:20:08.298Z,21.27
2022-12-12T06:22:37.050Z,20.57
2022-12-12T06:25:06.292Z,21.13
2022-12-12T06:27:34.572Z,18.60
2022-12-12T06:30:02.903Z,22.60
2022-12-12T06:32:31.161Z,17.63
2022-12-12T06:34:59.483Z,19.47
2022-12-12T06:37:29.183Z,21.07
2022-12-12T06:39:57.534Z,20.63
2022-12-12T06:42:25.815Z,19.53
2022-12-12T06:44:54.121Z,19.60
2022-12-12T06:47:22.401Z,24.07
2022-12-12T06:49:50.678Z,20.17
2022-12-12T06:52:18.960Z,20.57
2022-12-12T06:54:48.801Z,20.70
2022-12-12T06:57:17.059Z,18.60
2022-12-12T06:59:45.530Z,21.30
2022-12-12T07:02:13.970Z,23.57
2022-12-12T07:04:42.292Z,30.03
2022-12-12T07:07:10.640Z,33.23
2022-12-12T07:09:38.920Z,31.00
2022-12-12T07:12:08.736Z,27.93
2022-12-12T07:14:39.533Z,23.30
2022-12-12T07:17:08.225Z,27.00
2022-12-12T07:19:36.802Z,29.00
2022-12-12T07:22:09.813Z,22.57
2022-12-12T07:24:39.453Z,23.23
2022-12-12T07:27:09.095Z,21.90
2022-12-12T07:29:37.341Z,20.80
2022-12-12T07:32:06.171Z,19.17
2022-12-12T07:34:34.432Z,24.77
2022-12-12T07:37:03.470Z,21.93
2022-12-12T07:39:32.631Z,23.70
2022-12-12T07:42:01.334Z,24.27
2022-12-12T07:44:31.157Z,25.33
2022-12-12T07:46:59.897Z,23.73
2022-12-12T07:49:30.199Z,25.17
2022-12-12T07:51:58.527Z,23.87
2022-12-12T07:54:26.924Z,22.63
2022-12-12T07:56:55.216Z,17.43
2022-12-12T07:59:23.663Z,12.73
2022-12-12T08:01:53.496Z,12.77
2022-12-12T08:04:21.904Z,10.77
2022-12-12T08:06:54.118Z,10.93
2022-12-12T08:09:28.009Z,13.20
2022-12-12T08:11:57.051Z,10.50
2022-12-12T08:14:25.355Z,13.10
2022-12-12T08:16:55.310Z,10.77
2022-12-12T08:19:23.852Z,12.87
2022-12-12T08:21:52.136Z,12.67
2022-12-12T08:24:20.453Z,12.73
2022-12-12T08:26:51.434Z,10.97
2022-12-12T08:29:19.917Z,8.30
2022-12-12T08:31:48.388Z,7.93
2022-12-12T08:34:18.144Z,9.07
2022-12-12T08:36:47.432Z,9.13
2022-12-12T08:39:17.864Z,8.27
2022-12-12T08:41:48.549Z,10.20
2022-12-12T08:44:18.707Z,13.00
2022-12-12T08:46:48.102Z,11.60
2022-12-12T08:49:17.802Z,12.87
2022-12-12T08:51:46.235Z,11.00
2022-12-12T08:54:15.243Z,11.83
2022-12-12T08:56:43.570Z,16.50
2022-12-12T08:59:12.034Z,10.67
2022-12-12T09:01:41.179Z,10.30
2022-12-12T09:04:09.854Z,13.57
2022-12-12T09:06:39.640Z,10.40
2022-12-12T09:09:07.962Z,13.23
2022-12-12T09:11:36.349Z,8.40
2022-12-12T09:14:04.757Z,7.00
2022-12-12T09:16:33.160Z,11.00
2022-12-12T09:19:01.672Z,9.57
2022-12-12T09:21:29.981Z,10.47
2022-12-12T09:23:59.662Z,8.03
2022-12-12T09:26:27.943Z,7.83
2022-12-12T09:28:56.377Z,10.23
2022-12-12T09:31:24.755Z,8.93
2022-12-12T09:33:53.124Z,8.67
2022-12-12T09:36:21.500Z,8.23
2022-12-12T09:38:49.857Z,9.73
2022-12-12T09:41:22.497Z,7.40
2022-12-12T09:43:56.160Z,10.87
2022-12-12T09:46:37.546Z,11.40
2022-12-12T09:49:27.645Z,10.47
2022-12-12T09:51:58.741Z,12.27
2022-12-12T09:54:28.554Z,8.97
2022-12-12T09:57:15.599Z,8.67
2022-12-12T09:59:50.432Z,8.17
2022-12-12T10:02:52.072Z,9.90
2022-12-12T10:05:36.017Z,10.13
2022-12-12T10:08:16.957Z,9.17
2022-12-12T10:10:49.569Z,9.10
2022-12-12T10:13:23.753Z,9.13
2022-12-12T10:15:55.513Z,9.63
2022-12-12T10:18:30.030Z,10.03
2022-12-12T10:21:02.926Z,10.73
2022-12-12T10:23:38.983Z,9.50
2022-12-12T10:26:12.158Z,8.90
2022-12-12T10:28:41.905Z,10.10
2022-12-12T10:31:30.203Z,8.33
2022-12-12T10:34:15.530Z,11.63
2022-12-12T10:37:03.955Z,8.97
2022-12-12T10:39:44.406Z,8.83
2022-12-12T10:42:22.952Z,10.70
2022-12-12T10:45:23.787Z,8.60
2022-12-12T10:47:52.410Z,7.60
2022-12-12T10:50:33.634Z,9.17
2022-12-12T10:53:03.087Z,7.97
2022-12-12T10:55:42.289Z,9.27
2022-12-12T10:58:10.580Z,11.77
2022-12-12T11:00:43.929Z,12.47
2022-12-12T11:03:27.069Z,12.97
2022-12-12T11:05:56.811Z,9.63
2022-12-12T11:08:30.206Z,10.77
2022-12-12T11:11:09.165Z,11.37
2022-12-12T11:13:46.506Z,12.17
2022-12-12T11:16:19.709Z,11.47
2022-12-12T11:19:07.062Z,15.03
2022-12-12T11:21:37.277Z,9.57
2022-12-12T11:24:12.831Z,12.10
2022-12-12T11:26:47.204Z,12.57
2022-12-12T11:29:37.557Z,10.97
2022-12-12T11:32:14.677Z,12.47
2022-12-12T11:34:47.480Z,14.57
2022-12-12T11:37:18.774Z,11.60
2022-12-12T11:39:51.219Z,13.57
2022-12-12T11:42:25.521Z,16.23
2022-12-12T11:45:02.396Z,11.67
2022-12-12T11:47:40.827Z,14.37
2022-12-12T11:50:23.017Z,12.37
2022-12-12T11:52:53.442Z,14.47
2022-12-12T11:55:32.872Z,15.77
2022-12-12T11:58:17.413Z,15.47
2022-12-12T12:00:54.214Z,12.97
2022-12-12T12:03:32.157Z,14.40
2022-12-12T12:06:26.429Z,19.60
2022-12-12T12:09:25.741Z,26.63
2022-12-12T12:12:05.525Z,25.30
2022-12-12T12:14:56.731Z,23.77
2022-12-12T12:17:42.221Z,19.60
2022-12-12T12:20:24.537Z,15.93
2022-12-12T12:23:04.957Z,16.50
2022-12-12T12:25:44.666Z,14.83
2022-12-12T12:29:01.917Z,18.57
2022-12-12T12:31:42.636Z,10.47
2022-12-12T12:34:22.668Z,10.77
2022-12-12T12:37:09.311Z,10.20
2022-12-12T12:39:58.755Z,13.17
2022-12-12T12:42:49.262Z,15.87
2022-12-12T12:45:25.792Z,18.33
2022-12-12T12:47:59.823Z,10.13
2022-12-12T12:50:32.972Z,9.73
2022-12-12T12:53:08.621Z,10.33
2022-12-12T12:55:43.506Z,9.50
2022-12-12T12:58:20.316Z,9.57
2022-12-12T13:00:56.952Z,10.97
2022-12-12T13:03:33.137Z,11.60
2022-12-12T13:06:06.123Z,11.77
2022-12-12T13:08:55.978Z,10.90
2022-12-12T13:11:32.089Z,8.83
2022-12-12T13:14:12.967Z,9.73
2022-12-12T13:16:42.101Z,9.70
2022-12-12T13:19:16.545Z,11.10
2022-12-12T13:21:56.159Z,10.77
2022-12-12T13:24:33.656Z,12.77
2022-12-12T13:27:09.797Z,10.47
2022-12-12T13:29:47.525Z,10.73
2022-12-12T13:33:12.989Z,9.43
2022-12-12T13:35:46.084Z,9.40
2022-12-12T13:38:21.220Z,8.47
2022-12-12T13:40:58.719Z,11.10
2022-12-12T13:43:32.044Z,10.83
2022-12-12T13:46:41.539Z,12.50
2022-12-12T13:49:45.404Z,13.23
2022-12-12T13:52:30.036Z,10.40
2022-12-12T13:55:22.512Z,9.80
2022-12-12T13:58:19.355Z,9.83
2022-12-12T14:00:48.234Z,9.00
2022-12-12T14:03:30.602Z,10.73
2022-12-12T14:06:12.591Z,9.20
2022-12-12T14:08:49.811Z,10.27
2022-12-12T14:11:37.763Z,9.10
2022-12-12T14:14:20.347Z,9.30
2022-12-12T14:16:57.985Z,8.97
2022-12-12T14:19:31.216Z,10.00
2022-12-12T14:21:59.544Z,12.73
2022-12-12T14:25:05.832Z,10.97
2022-12-12T14:28:16.923Z,9.40
2022-12-12T14:30:53.345Z,10.10
2022-12-12T14:33:55.460Z,9.97
2022-12-12T14:37:09.892Z,7.33
2022-12-12T14:39:57.503Z,8.63
2022-12-12T14:43:16.421Z,9.53
2022-12-12T14:45:35.590Z,11.33
2022-12-12T14:48:20.499Z,11.03
2022-12-12T14:51:07.558Z,25.57
2022-12-12T14:53:46.451Z,26.70
2022-12-12T14:56:18.236Z,26.70
2022-12-12T14:58:50.601Z,18.53
2022-12-12T15:01:32.426Z,16.93
2022-12-12T15:04:05.670Z,16.97
2022-12-12T15:06:37.628Z,22.43
2022-12-12T15:09:19.537Z,18.97
2022-12-12T15:11:49.381Z,19.10
2022-12-12T15:14:24.695Z,27.40
2022-12-12T15:17:00.123Z,39.13
2022-12-12T15:19:32.753Z,27.93
2022-12-12T15:22:01.129Z,26.30
2022-12-12T15:24:37.789Z,34.40
2022-12-12T15:27:07.545Z,33.30
2022-12-12T15:29:38.831Z,35.37
2022-12-12T15:32:10.983Z,26.83
2022-12-12T15:34:43.971Z,25.13
2022-12-12T15:37:21.481Z,28.57
2022-12-12T15:40:06.243Z,22.43
2022-12-12T15:42:35.226Z,24.20
2022-12-12T15:45:05.188Z,20.73
2022-12-12T15:47:33.737Z,22.50
2022-12-12T15:50:13.706Z,20.37
2022-12-12T15:52:43.206Z,20.47
2022-12-12T15:55:22.296Z,24.73
2022-12-12T15:57:53.282Z,25.40
2022-12-12T16:00:40.504Z,29.80
2022-12-12T16:03:23.356Z,28.70
2022-12-12T16:06:06.941Z,31.40
2022-12-12T16:08:47.153Z,34.17
2022-12-12T16:11:45.387Z,37.43
2022-12-12T16:14:40.332Z,31.43
2022-12-12T16:17:14.159Z,26.67
2022-12-12T16:22:39.534Z,29.83
2022-12-12T16:25:19.738Z,20.67
2022-12-12T16:27:52.066Z,19.13
2022-12-12T16:30:20.457Z,21.60
2022-12-12T16:32:48.715Z,20.93
2022-12-12T16:35:19.903Z,24.53
2022-12-12T16:37:50.296Z,27.43
2022-12-12T16:40:20.961Z,21.80
2022-12-12T16:42:56.322Z,21.20
2022-12-12T16:45:24.841Z,21.20
2022-12-12T16:47:53.163Z,25.00
2022-12-12T16:50:21.383Z,22.27
2022-12-12T16:52:51.007Z,26.73
2022-12-12T16:55:24.238Z,27.50
2022-12-12T16:57:52.499Z,27.90
2022-12-12T17:00:21.188Z,34.00
2022-12-12T17:02:49.413Z,32.67
2022-12-12T17:05:23.383Z,29.13
2022-12-12T17:07:54.176Z,26.60
2022-12-12T17:10:25.514Z,28.40
2022-12-12T17:12:55.177Z,27.80
2022-12-12T17:15:26.962Z,26.37
2022-12-12T17:17:55.439Z,24.87
2022-12-12T17:20:24.869Z,22.47
2022-12-12T17:22:55.503Z,24.67
2022-12-12T17:25:24.410Z,20.07
2022-12-12T17:27:53.847Z,23.60
2022-12-12T17:30:23.019Z,27.97
2022-12-12T17:35:37.045Z,25.70
2022-12-12T17:38:10.231Z,24.90
2022-12-12T17:40:44.211Z,26.80
2022-12-12T17:43:12.498Z,28.57
2022-12-12T17:45:40.799Z,29.93
2022-12-12T17:48:09.064Z,26.43
2022-12-12T17:50:41.784Z,33.13
2022-12-12T17:53:11.785Z,30.27
2022-12-12T17:55:55.238Z,29.20
2022-12-12T17:58:29.541Z,30.13
2022-12-12T18:00:58.221Z,28.67
2022-12-12T18:03:26.681Z,30.63
2022-12-12T18:05:55.007Z,26.43
2022-12-12T18:08:24.750Z,29.03
2022-12-12T18:10:53.040Z,27.97
2022-12-12T18:13:21.345Z,28.10
2022-12-12T18:15:56.037Z,27.80
2022-12-12T18:18:24.643Z,28.60
2022-12-12T18:20:53.141Z,28.33
2022-12-12T18:23:21.409Z,27.90
2022-12-12T18:25:51.101Z,27.87
2022-12-12T18:28:19.464Z,29.63
2022-12-12T18:30:50.244Z,29.57
2022-12-12T18:33:18.691Z,28.37
2022-12-12T18:35:47.093Z,26.23
2022-12-12T18:38:16.786Z,27.80
2022-12-12T18:40:45.167Z,29.27
2022-12-12T18:43:14.880Z,25.60
2022-12-12T18:45:43.252Z,26.07
2022-12-12T18:48:11.594Z,28.33
2022-12-12T18:50:39.930Z,28.13
2022-12-12T18:53:08.634Z,36.77
2022-12-12T18:55:41.624Z,30.73
2022-12-12T18:58:11.050Z,37.23
2022-12-12T19:00:41.097Z,34.90
2022-12-12T19:03:10.072Z,31.63
2022-12-12T19:05:42.353Z,36.20
2022-12-12T19:08:11.982Z,33.63
2022-12-12T19:10:40.899Z,33.60
2022-12-12T19:13:09.230Z,48.73
2022-12-12T19:15:37.520Z,61.47
2022-12-12T19:18:07.496Z,71.23
2022-12-12T19:20:37.029Z,74.97
2022-12-12T19:23:06.572Z,68.00
2022-12-12T19:25:42.327Z,61.47
2022-12-12T19:28:12.380Z,55.63
2022-12-12T19:30:41.658Z,43.23
2022-12-12T19:33:11.482Z,37.40
2022-12-12T19:35:39.822Z,34.00
2022-12-12T19:38:08.172Z,34.10
2022-12-12T19:40:36.494Z,34.57
2022-12-12T19:43:04.912Z,36.63
2022-12-12T19:45:33.259Z,34.73
2022-12-12T19:48:01.704Z,33.63
2022-12-12T19:50:31.392Z,35.97
2022-12-12T19:53:00.115Z,32.30
2022-12-12T19:55:28.453Z,35.23
2022-12-12T19:57:56.804Z,37.93
2022-12-12T20:00:26.025Z,34.37
2022-12-12T20:02:54.505Z,38.07
2022-12-12T20:05:22.891Z,39.17
2022-12-12T20:07:52.637Z,34.13
2022-12-12T20:10:20.968Z,38.23
2022-12-12T20:12:56.333Z,36.77
2022-12-12T20:15:27.108Z,35.07
2022-12-12T20:17:56.344Z,32.73
2022-12-12T20:20:24.704Z,35.27
2022-12-12T20:22:54.445Z,32.97
2022-12-12T20:25:22.753Z,36.47
2022-12-12T20:27:51.057Z,38.80
2022-12-12T20:30:19.522Z,33.43
2022-12-12T20:32:47.941Z,35.40
2022-12-12T20:35:16.394Z,36.57
2022-12-12T20:37:44.724Z,35.70
2022-12-12T20:40:15.087Z,35.50
2022-12-12T20:42:46.303Z,33.93
2022-12-12T20:45:18.807Z,37.97
2022-12-12T20:47:47.139Z,33.17
2022-12-12T20:50:15.598Z,33.87
2022-12-12T20:52:43.922Z,40.93
2022-12-12T20:55:14.048Z,30.00
2022-12-12T20:57:43.030Z,29.50
2022-12-12T21:00:13.350Z,29.20
2022-12-12T21:02:41.777Z,30.10
2022-12-12T21:05:11.090Z,29.53
2022-12-12T21:07:39.606Z,28.60
2022-12-12T21:10:08.736Z,25.80
2022-12-12T21:12:38.478Z,29.10
2022-12-12T21:15:07.939Z,36.83
2022-12-12T21:17:36.267Z,41.73
2022-12-12T21:20:06.820Z,41.60
2022-12-12T21:22:35.829Z,37.53
2022-12-12T21:25:04.155Z,38.43
2022-12-12T21:27:33.195Z,35.27
2022-12-12T21:30:02.890Z,35.40
2022-12-12T21:32:31.217Z,36.83
2022-12-12T21:34:59.553Z,34.07
2022-12-12T21:37:27.886Z,34.70
2022-12-12T21:39:56.197Z,32.70
2022-12-12T21:42:24.481Z,33.20
2022-12-12T21:44:52.787Z,31.07
2022-12-12T21:47:22.416Z,31.17
2022-12-12T21:49:50.733Z,32.73
2022-12-12T21:52:19.067Z,33.13
2022-12-12T21:54:47.340Z,30.97
2022-12-12T21:57:16.040Z,33.47
2022-12-12T21:59:45.312Z,33.00
2022-12-12T22:02:14.593Z,35.93
2022-12-12T22:04:44.254Z,31.07
2022-12-12T22:07:12.923Z,34.17
2022-12-12T22:09:42.227Z,35.37
2022-12-12T22:12:10.573Z,35.03
2022-12-12T22:14:38.971Z,33.70
2022-12-12T22:17:07.536Z,34.77
2022-12-12T22:19:35.858Z,36.90
2022-12-12T22:22:05.513Z,36.67
2022-12-12T22:24:33.982Z,36.43
2022-12-12T22:27:02.435Z,36.53
2022-12-12T22:29:30.667Z,33.20
2022-12-12T22:31:58.928Z,35.37
2022-12-12T22:34:27.303Z,33.87
2022-12-12T22:36:55.877Z,37.80
2022-12-12T22:39:28.176Z,34.57
2022-12-12T22:41:57.317Z,39.83
2022-12-12T22:44:27.088Z,37.43
2022-12-12T22:46:56.339Z,37.77
2022-12-12T22:49:27.048Z,33.77
2022-12-12T22:51:57.905Z,32.23
2022-12-12T22:54:28.253Z,31.17
2022-12-12T22:56:56.522Z,32.17
2022-12-12T22:59:24.856Z,31.67
2022-12-12T23:01:53.152Z,29.80
2022-12-12T23:04:21.567Z,39.10
2022-12-12T23:06:49.841Z,29.80
2022-12-12T23:09:20.455Z,33.90
2022-12-12T23:11:50.137Z,34.80
2022-12-12T23:14:21.802Z,31.37
2022-12-12T23:16:51.113Z,32.13
2022-12-12T23:19:23.416Z,32.87
2022-12-12T23:21:51.865Z,31.70
2022-12-12T23:24:20.184Z,30.50
2022-12-12T23:26:52.020Z,31.43
2022-12-12T23:29:21.088Z,28.57
2022-12-12T23:31:49.798Z,31.93
2022-12-12T23:34:22.814Z,25.93
2022-12-12T23:36:51.745Z,31.20
2022-12-12T23:39:20.131Z,29.60
2022-12-12T23:41:49.789Z,32.23
2022-12-12T23:44:20.536Z,29.50
2022-12-12T23:46:49.725Z,29.80
2022-12-12T23:49:21.051Z,28.93
2022-12-12T23:51:51.524Z,32.87
2022-12-12T23:54:22.719Z,31.13
2022-12-12T23:56:52.921Z,32.93
2022-12-12T23:59:22.848Z,29.93
